createdAt,value
2022-12-04T00:04:57.476Z,29.27
2022-12-04T00:10:00.266Z,31.90
2022-12-04T00:20:27.754Z,25.45
2022-12-04T00:25:37.760Z,31.70
2022-12-04T00:30:47.862Z,30.08
2022-12-04T00:35:57.047Z,31.60
2022-12-04T00:41:00.759Z,31.75
2022-12-04T00:46:04.913Z,26.10
2022-12-04T00:51:10.387Z,25.33
2022-12-04T00:56:18.275Z,31.88
2022-12-04T01:01:23.921Z,31.15
2022-12-04T01:06:28.833Z,29.88
2022-12-04T01:11:32.577Z,32.45
2022-12-04T01:16:39.408Z,24.63
2022-12-04T01:21:42.252Z,31.45
2022-12-04T01:26:44.828Z,32.65
2022-12-04T01:31:48.794Z,32.20
2022-12-04T01:36:51.473Z,25.30
2022-12-04T01:41:54.053Z,33.47
2022-12-04T01:46:59.457Z,30.30
2022-12-04T01:52:06.820Z,30.70
2022-12-04T01:57:15.236Z,31.88
2022-12-04T02:02:24.297Z,32.40
2022-12-04T02:07:27.209Z,30.65
2022-12-04T02:12:38.532Z,32.30
2022-12-04T02:17:52.502Z,30.30
2022-12-04T02:23:17.014Z,24.05
2022-12-04T02:28:27.082Z,24.98
2022-12-04T02:33:34.075Z,31.02
2022-12-04T02:38:43.651Z,30.98
2022-12-04T02:43:52.821Z,30.83
2022-12-04T02:49:01.139Z,31.35
2022-12-04T02:54:08.937Z,32.90
2022-12-04T02:59:17.315Z,32.33
2022-12-04T03:04:23.326Z,31.00
2022-12-04T03:09:32.062Z,33.03
2022-12-04T03:14:41.015Z,31.42
2022-12-04T03:19:49.474Z,31.40
2022-12-04T03:24:54.134Z,31.58
2022-12-04T03:30:02.939Z,31.75
2022-12-04T03:35:12.415Z,31.88
2022-12-04T03:40:20.638Z,31.40
2022-12-04T03:45:28.715Z,31.48
2022-12-04T03:50:40.554Z,32.13
2022-12-04T03:55:47.963Z,31.45
2022-12-04T04:00:54.150Z,33.65
2022-12-04T04:06:02.675Z,32.65
2022-12-04T04:11:13.232Z,32.28
2022-12-04T04:16:38.798Z,33.47
2022-12-04T04:22:03.069Z,32.75
2022-12-04T04:27:06.360Z,26.55
2022-12-04T04:32:15.127Z,33.60
2022-12-04T04:37:30.019Z,32.63
2022-12-04T04:42:38.635Z,35.20
2022-12-04T04:47:48.261Z,35.97
2022-12-04T04:52:55.397Z,34.83
2022-12-04T04:58:07.660Z,35.33
2022-12-04T05:03:11.836Z,35.30
2022-12-04T05:08:14.606Z,27.00
2022-12-04T05:13:18.207Z,35.35
2022-12-04T05:18:22.218Z,28.27
2022-12-04T05:23:25.360Z,29.52
2022-12-04T05:28:28.612Z,38.50
2022-12-04T05:33:32.560Z,36.97
2022-12-04T05:38:35.326Z,28.80
2022-12-04T05:43:37.962Z,38.72
2022-12-04T05:48:42.037Z,37.22
2022-12-04T05:53:44.667Z,30.85
2022-12-04T05:58:47.244Z,39.30
2022-12-04T06:03:51.254Z,37.50
2022-12-04T06:08:56.256Z,30.73
2022-12-04T06:14:00.478Z,40.55
2022-12-04T06:19:07.866Z,32.10
2022-12-04T06:24:14.281Z,38.47
2022-12-04T06:29:17.342Z,41.05
2022-12-04T06:34:21.489Z,39.63
2022-12-04T06:39:24.217Z,30.85
2022-12-04T06:44:26.915Z,39.30
2022-12-04T06:49:30.846Z,38.15
2022-12-04T06:54:33.574Z,31.35
2022-12-04T06:59:36.880Z,38.30
2022-12-04T07:04:40.881Z,42.33
2022-12-04T07:09:44.234Z,35.10
2022-12-04T07:14:46.820Z,41.47
2022-12-04T07:19:50.889Z,41.05
2022-12-04T07:24:53.528Z,41.95
2022-12-04T07:29:57.384Z,41.80
2022-12-04T07:35:01.609Z,32.30
2022-12-04T07:40:07.357Z,33.58
2022-12-04T07:45:10.943Z,39.92
2022-12-04T07:50:14.966Z,33.40
2022-12-04T07:55:23.004Z,33.85
2022-12-04T08:00:25.950Z,40.85
2022-12-04T08:05:30.015Z,42.15
2022-12-04T08:10:32.852Z,32.08
2022-12-04T08:15:35.873Z,41.15
2022-12-04T08:20:40.014Z,40.85
2022-12-04T08:25:42.780Z,33.38
2022-12-04T08:30:45.419Z,42.50
2022-12-04T08:35:49.496Z,42.97
2022-12-04T08:40:52.176Z,35.47
2022-12-04T08:45:58.946Z,42.58
2022-12-04T08:51:04.183Z,44.28
2022-12-04T08:56:07.550Z,44.75
2022-12-04T09:01:12.964Z,46.65
2022-12-04T09:06:18.862Z,44.92
2022-12-04T09:11:25.979Z,46.50
2022-12-04T09:16:29.265Z,46.58
2022-12-04T09:21:33.682Z,49.40
2022-12-04T09:26:36.584Z,35.95
2022-12-04T09:31:39.398Z,49.13
2022-12-04T09:36:43.636Z,48.50
2022-12-04T09:42:09.684Z,37.65
2022-12-04T09:47:20.922Z,70.47
2022-12-04T09:52:36.579Z,54.35
2022-12-04T09:57:44.917Z,52.92
2022-12-04T10:02:52.767Z,51.95
2022-12-04T10:08:07.075Z,46.65
2022-12-04T10:13:31.241Z,43.17
2022-12-04T10:18:45.771Z,38.20
2022-12-04T10:24:00.058Z,36.53
2022-12-04T10:29:08.189Z,41.42
2022-12-04T10:34:17.464Z,48.20
2022-12-04T10:39:26.288Z,47.88
2022-12-04T10:44:28.959Z,53.85
2022-12-04T10:49:35.213Z,54.88
2022-12-04T10:54:47.836Z,49.13
2022-12-04T10:59:52.672Z,48.05
2022-12-04T11:05:00.248Z,48.42
2022-12-04T11:10:07.634Z,48.83
2022-12-04T11:15:15.691Z,49.50
2022-12-04T11:20:26.998Z,50.25
2022-12-04T11:25:41.090Z,49.15
2022-12-04T11:30:50.175Z,38.15
2022-12-04T11:35:56.754Z,48.90
2022-12-04T11:41:04.727Z,50.95
2022-12-04T11:46:08.117Z,49.13
2022-12-04T11:51:25.568Z,48.05
2022-12-04T11:56:34.937Z,50.47
2022-12-04T12:01:47.413Z,49.83
2022-12-04T12:06:59.310Z,48.83
2022-12-04T12:12:08.412Z,52.40
2022-12-04T12:17:21.811Z,50.92
2022-12-04T12:22:48.431Z,51.95
2022-12-04T12:28:10.158Z,52.55
2022-12-04T12:33:18.426Z,51.40
2022-12-04T12:38:25.968Z,50.22
2022-12-04T12:43:32.771Z,49.40
2022-12-04T12:48:41.130Z,52.97
2022-12-04T12:53:48.057Z,50.38
2022-12-04T12:58:58.845Z,49.13
2022-12-04T13:04:09.904Z,49.65
2022-12-04T13:09:19.106Z,47.85
2022-12-04T13:14:23.081Z,50.13
2022-12-04T13:19:30.887Z,37.83
2022-12-04T13:24:53.761Z,49.30
2022-12-04T13:30:15.582Z,49.42
2022-12-04T13:35:29.590Z,49.30
2022-12-04T13:40:36.408Z,37.65
2022-12-04T13:45:42.129Z,45.20
2022-12-04T13:50:44.873Z,46.78
2022-12-04T13:55:56.590Z,48.55
2022-12-04T14:01:13.041Z,49.75
2022-12-04T14:06:25.347Z,48.75
2022-12-04T14:11:30.115Z,48.72
2022-12-04T14:16:39.459Z,47.42
2022-12-04T14:21:43.305Z,48.75
2022-12-04T14:32:21.575Z,47.50
2022-12-04T14:37:29.470Z,47.38
2022-12-04T14:42:36.802Z,49.42
2022-12-04T14:47:50.846Z,47.25
2022-12-04T14:52:59.754Z,37.30
2022-12-04T14:58:23.974Z,48.00
2022-12-04T15:03:35.324Z,36.80
2022-12-04T15:08:37.987Z,47.00
2022-12-04T15:13:41.704Z,46.15
2022-12-04T15:18:56.782Z,34.53
2022-12-04T15:23:59.890Z,49.08
2022-12-04T15:29:06.330Z,49.92
2022-12-04T15:34:16.808Z,49.03
2022-12-04T15:39:21.439Z,51.85
2022-12-04T15:44:28.485Z,47.80
2022-12-04T15:49:34.106Z,49.05
2022-12-04T15:54:38.270Z,47.50
2022-12-04T15:59:40.906Z,37.35
2022-12-04T16:04:47.168Z,46.50
2022-12-04T16:10:01.277Z,47.22
2022-12-04T16:15:06.193Z,46.67
2022-12-04T16:20:12.421Z,47.25
2022-12-04T16:25:18.898Z,45.38
2022-12-04T16:30:21.604Z,45.13
2022-12-04T16:35:25.549Z,47.40
2022-12-04T16:40:28.153Z,35.17
2022-12-04T16:45:34.442Z,46.00
2022-12-04T16:50:39.878Z,45.80
2022-12-04T16:55:42.519Z,46.53
2022-12-04T17:00:50.427Z,47.55
2022-12-04T17:05:54.584Z,46.53
2022-12-04T17:10:57.208Z,35.80
2022-12-04T17:16:00.110Z,47.72
2022-12-04T17:21:07.508Z,45.97
2022-12-04T17:26:14.147Z,48.60
2022-12-04T17:31:19.275Z,45.63
2022-12-04T17:36:26.288Z,45.00
2022-12-04T17:41:36.270Z,48.28
2022-12-04T17:46:39.821Z,46.05
2022-12-04T17:51:45.278Z,47.03
2022-12-04T17:56:50.393Z,44.58
2022-12-04T18:01:56.061Z,45.53
2022-12-04T18:07:00.117Z,45.92
2022-12-04T18:12:03.287Z,35.75
2022-12-04T18:17:08.927Z,45.42
2022-12-04T18:22:21.997Z,45.88
2022-12-04T18:27:25.283Z,45.10
2022-12-04T18:32:29.419Z,46.40
2022-12-04T18:37:34.070Z,35.55
2022-12-04T18:42:36.766Z,44.03
2022-12-04T18:47:39.466Z,47.22
2022-12-04T18:52:43.430Z,46.50
2022-12-04T18:57:46.094Z,36.03
2022-12-04T19:02:48.777Z,44.75
2022-12-04T19:07:53.705Z,45.42
2022-12-04T19:12:56.448Z,44.53
2022-12-04T19:17:59.019Z,46.30
2022-12-04T19:23:03.049Z,47.95
2022-12-04T19:28:06.415Z,38.20
2022-12-04T19:33:09.056Z,46.78
2022-12-04T19:38:12.975Z,47.40
2022-12-04T19:43:15.586Z,36.40
2022-12-04T19:48:18.917Z,45.65
2022-12-04T19:53:22.834Z,46.55
2022-12-04T19:58:26.212Z,36.30
2022-12-04T20:03:29.102Z,47.72
2022-12-04T20:08:33.429Z,50.03
2022-12-04T20:13:36.286Z,38.75
2022-12-04T20:18:40.634Z,49.28
2022-12-04T20:23:49.339Z,38.63
2022-12-04T20:28:52.025Z,51.03
2022-12-04T20:33:55.900Z,51.25
2022-12-04T20:39:00.468Z,39.28
2022-12-04T20:49:08.544Z,50.25
2022-12-04T20:54:18.076Z,49.95
2022-12-04T20:59:23.133Z,49.83
2022-12-04T21:04:25.783Z,51.33
2022-12-04T21:09:30.812Z,49.47
2022-12-04T21:14:51.109Z,51.15
2022-12-04T21:19:55.061Z,50.67
2022-12-04T21:24:59.247Z,40.40
2022-12-04T21:30:02.074Z,39.75
2022-12-04T21:35:05.495Z,49.00
2022-12-04T21:40:10.775Z,48.67
2022-12-04T21:45:13.376Z,48.58
2022-12-04T21:50:15.950Z,50.15
2022-12-04T21:55:20.010Z,49.65
2022-12-04T22:00:22.746Z,39.33
2022-12-04T22:05:25.412Z,50.40
2022-12-04T22:10:29.347Z,51.85
2022-12-04T22:15:31.931Z,38.92
2022-12-04T22:20:34.699Z,48.42
2022-12-04T22:25:39.919Z,49.42
2022-12-04T22:30:42.563Z,51.45
2022-12-04T22:35:45.148Z,51.22
2022-12-04T22:40:49.049Z,50.70
2022-12-04T22:45:51.630Z,40.17
2022-12-04T22:50:57.882Z,51.05
2022-12-04T22:56:06.374Z,52.15
2022-12-04T23:01:13.803Z,50.78
2022-12-04T23:06:18.009Z,50.22
2022-12-04T23:11:25.662Z,42.13
2022-12-04T23:16:29.609Z,49.70
2022-12-04T23:21:32.392Z,40.75
2022-12-04T23:26:41.139Z,50.95
2022-12-04T23:31:43.777Z,51.13
2022-12-04T23:36:46.470Z,50.60
2022-12-04T23:41:50.436Z,49.63
2022-12-04T23:46:53.125Z,38.42
2022-12-04T23:51:55.754Z,49.47
2022-12-04T23:56:59.727Z,48.28
